Briefing drone pour Chabeuil

Rechercher une autre localisation

Conditions de vol :


Nous sommes le : Mercredi 25 mai 2022
Il est 14:19 UTC (16:19 LT)

Lever de soleil : 03:35 UTC (05:35 LT)
Coucher de soleil : 19:38 UTC (21:38 LT)

Météo

L'essentiel des conditions de vol

VIGILANCE MÉTÉO FRANCE - Drôme (26)
Pas de vigilances particulieres
METAR de LFLU
LFLU 251400Z AUTO 35019KT 9999 SCT064 24/08 Q1016

Date d'émission: 25/05/2022
Heure d'émission: 14:00 UTC
Vent: 350° pour 19 KT (35 km/h)
Visibilité horizontale: > 10 km
Plafond :
- Nuages épars à 6400ft (1951m)
Température: 24 °C
Point de rosée: 8 °C
Humidité: 36%
Pression (QNH): 1016 hPa
Prévision 24h pour Valence (6 km)
Vent : 12° pour 8 KT (29 km/h)
Temperature Maxi: 20 °C
Temperature Min: 20 °C
Humidité : 47%
Condition : Partiellement nuageux



Warning: count(): Parameter must be an array or an object that implements Countable in /homepages/6/d509196549/htdocs/droneoxygene/briefing.php on line 743
WEBCAM POUR CHABEUIL

Réglementation

Voler en sécurité

CARTES AERONAUTIQUE 1/500.000
CARTES VAC (LFLU)
SUP AIP




Chargement des AIP...
NOTAM (CHABEUIL + Terrain à proximité / FIR )




Chargement des NOTAMS...
CONTACT PREFECTURE 26
Drôme (26) : ddt-satem@drome.gouv.fr


Avertissement : Les données mises à disposition sont indicatives. Oxygène Drone ne pourra être tenu responsable de dégâts causés aux biens et aux personnes.